createdAt,value
2023-04-01T00:02:54.769Z,0.47
2023-04-01T00:08:03.067Z,0.60
2023-04-01T00:13:20.232Z,0.70
2023-04-01T00:18:26.289Z,0.57
2023-04-01T00:23:31.961Z,0.47
2023-04-01T00:28:40.458Z,0.30
2023-04-01T00:33:47.518Z,0.30
2023-04-01T00:38:53.672Z,0.40
2023-04-01T00:44:22.609Z,0.30
2023-04-01T00:49:31.013Z,0.23
2023-04-01T00:54:38.392Z,0.30
2023-04-01T00:59:48.929Z,0.23
2023-04-01T01:04:54.516Z,0.20
2023-04-01T01:10:09.261Z,0.10
2023-04-01T01:15:24.812Z,0.30
2023-04-01T01:20:57.617Z,0.43
2023-04-01T01:26:27.496Z,0.30
2023-04-01T01:31:40.929Z,0.40
2023-04-01T01:36:54.824Z,0.40
2023-04-01T01:42:03.799Z,0.40
2023-04-01T01:47:12.173Z,0.40
2023-04-01T01:52:21.035Z,0.40
2023-04-01T01:57:29.772Z,0.30
2023-04-01T02:02:38.215Z,0.30
2023-04-01T02:07:50.775Z,0.30
2023-04-01T02:13:02.285Z,0.20
2023-04-01T02:18:08.770Z,0.30
2023-04-01T02:23:17.647Z,0.20
2023-04-01T02:28:23.950Z,0.30
2023-04-01T02:33:31.941Z,0.30
2023-04-01T02:38:40.882Z,0.30
2023-04-01T02:43:46.285Z,0.40
2023-04-01T02:48:52.254Z,0.32
2023-04-01T02:54:00.257Z,0.35
2023-04-01T02:59:06.504Z,0.20
2023-04-01T03:04:15.215Z,0.15
2023-04-01T03:09:23.436Z,0.30
2023-04-01T03:14:28.948Z,0.20
2023-04-01T03:19:35.727Z,0.20
2023-04-01T03:24:50.808Z,0.20
2023-04-01T03:29:56.284Z,0.65
2023-04-01T03:35:02.036Z,0.30
2023-04-01T03:40:11.912Z,0.20
2023-04-01T03:45:17.457Z,0.20
2023-04-01T03:50:25.681Z,0.20
2023-04-01T03:55:34.095Z,0.20
2023-04-01T04:00:40.041Z,0.20
2023-04-01T04:05:51.264Z,0.30
2023-04-01T04:11:03.142Z,0.20
2023-04-01T04:16:09.818Z,0.10
2023-04-01T04:21:19.515Z,0.30
2023-04-01T04:26:27.909Z,0.30
2023-04-01T04:31:38.362Z,0.20
2023-04-01T04:36:44.584Z,0.17
2023-04-01T04:41:53.558Z,0.37
2023-04-01T04:47:01.310Z,0.30
2023-04-01T04:52:06.810Z,0.33
2023-04-01T04:57:15.629Z,0.50
2023-04-01T05:02:30.765Z,0.45
2023-04-01T05:07:37.298Z,0.30
2023-04-01T05:12:45.668Z,0.35
2023-04-01T05:17:56.367Z,0.50
2023-04-01T05:23:03.321Z,0.30
2023-04-01T05:28:11.720Z,0.52
2023-04-01T05:33:17.769Z,0.60
2023-04-01T05:38:23.424Z,0.73
2023-04-01T05:43:31.780Z,0.67
2023-04-01T05:48:44.072Z,0.60
2023-04-01T05:53:49.895Z,1.70
2023-04-01T05:59:00.494Z,0.97
2023-04-01T06:04:06.645Z,1.08
2023-04-01T06:09:17.961Z,0.83
2023-04-01T06:14:39.012Z,0.90
2023-04-01T06:19:54.598Z,1.30
2023-04-01T06:25:17.723Z,1.30
2023-04-01T06:30:44.548Z,1.35
2023-04-01T06:36:14.496Z,1.43
2023-04-01T06:41:55.385Z,1.30
2023-04-01T06:47:18.937Z,1.27
2023-04-01T06:52:54.046Z,1.37
2023-04-01T06:58:28.521Z,1.10
2023-04-01T07:03:40.044Z,1.10
2023-04-01T07:08:48.923Z,1.15
2023-04-01T07:13:58.626Z,1.15
2023-04-01T07:19:12.773Z,1.30
2023-04-01T07:24:37.258Z,1.38
2023-04-01T07:29:46.338Z,1.50
2023-04-01T07:35:17.758Z,1.95
2023-04-01T07:40:36.317Z,1.67
2023-04-01T07:45:48.421Z,1.70
2023-04-01T07:51:04.534Z,1.73
2023-04-01T07:56:14.901Z,1.57
2023-04-01T08:01:32.041Z,1.20
2023-04-01T08:06:46.482Z,1.80
2023-04-01T08:12:04.488Z,1.40
2023-04-01T08:17:57.524Z,1.20
2023-04-01T08:23:14.919Z,0.93
2023-04-01T08:28:28.322Z,1.25
2023-04-01T08:33:35.668Z,1.00
2023-04-01T08:38:51.843Z,1.20
2023-04-01T08:44:19.802Z,1.30
2023-04-01T08:49:49.024Z,1.10
2023-04-01T08:55:35.982Z,1.50
2023-04-01T09:00:53.461Z,1.48
2023-04-01T09:06:32.289Z,1.63
2023-04-01T09:12:23.338Z,2.03
2023-04-01T09:18:11.755Z,1.93
2023-04-01T09:23:44.912Z,2.53
2023-04-01T09:29:05.992Z,2.72
2023-04-01T09:34:41.845Z,2.53
2023-04-01T09:40:02.477Z,2.50
2023-04-01T09:45:25.184Z,2.90
2023-04-01T09:50:40.481Z,2.65
2023-04-01T09:56:19.910Z,3.28
2023-04-01T10:01:49.744Z,3.50
2023-04-01T10:07:17.485Z,3.78
2023-04-01T10:13:20.425Z,4.23
2023-04-01T10:25:57.489Z,3.88
2023-04-01T10:31:48.705Z,3.97
2023-04-01T10:44:20.065Z,3.13
2023-04-01T10:55:40.717Z,3.05
2023-04-01T11:15:30.924Z,2.87
2023-04-01T11:21:00.560Z,2.65
2023-04-01T11:26:24.886Z,3.22
2023-04-01T11:31:58.764Z,2.97
2023-04-01T11:37:18.239Z,3.22
2023-04-01T11:42:49.878Z,3.23
2023-04-01T11:48:55.980Z,3.08
2023-04-01T11:54:17.528Z,3.00
2023-04-01T11:59:45.525Z,2.60
2023-04-01T12:05:23.603Z,3.70
2023-04-01T12:10:41.018Z,3.57
2023-04-01T12:16:00.972Z,3.83
2023-04-01T12:21:17.379Z,3.30
2023-04-01T12:26:43.708Z,4.07
2023-04-01T12:31:56.085Z,4.80
2023-04-01T12:37:11.841Z,4.63
2023-04-01T12:42:34.809Z,5.20
2023-04-01T12:48:04.613Z,4.18
2023-04-01T12:53:37.837Z,4.50
2023-04-01T12:59:21.085Z,4.05
2023-04-01T13:04:48.870Z,3.73
2023-04-01T13:10:04.833Z,3.80
2023-04-01T13:15:25.236Z,4.00
2023-04-01T13:20:46.750Z,3.97
2023-04-01T13:26:10.891Z,3.55
2023-04-01T13:31:37.972Z,3.22
2023-04-01T13:36:57.224Z,3.07
2023-04-01T13:42:16.577Z,2.85
2023-04-01T13:47:54.495Z,2.43
2023-04-01T13:53:22.784Z,3.00
2023-04-01T13:58:49.534Z,2.80
2023-04-01T14:04:18.260Z,2.63
2023-04-01T14:09:47.483Z,2.85
2023-04-01T14:15:11.101Z,3.00
2023-04-01T14:20:36.655Z,2.35
2023-04-01T14:26:11.527Z,2.67
2023-04-01T14:31:31.590Z,2.57
2023-04-01T14:36:51.662Z,2.55
2023-04-01T14:42:21.585Z,1.97
2023-04-01T14:47:46.132Z,1.90
2023-04-01T14:53:03.751Z,1.80
2023-04-01T14:58:14.713Z,1.80
2023-04-01T15:03:28.081Z,2.00
2023-04-01T15:08:39.420Z,1.97
2023-04-01T15:14:05.333Z,1.70
2023-04-01T15:19:22.728Z,2.15
2023-04-01T15:24:39.843Z,2.20
2023-04-01T15:30:02.819Z,2.10
2023-04-01T15:35:25.849Z,2.20
2023-04-01T15:40:41.342Z,2.00
2023-04-01T15:45:55.920Z,2.20
2023-04-01T15:51:23.223Z,2.20
2023-04-01T15:56:48.789Z,2.38
2023-04-01T16:02:02.436Z,2.40
2023-04-01T16:07:20.741Z,2.40
2023-04-01T16:12:46.066Z,2.70
2023-04-01T16:18:12.396Z,2.43
2023-04-01T16:23:24.445Z,2.58
2023-04-01T16:28:36.563Z,2.83
2023-04-01T16:33:51.495Z,3.00
2023-04-01T16:39:22.727Z,2.80
2023-04-01T16:44:31.441Z,3.00
2023-04-01T16:49:43.582Z,2.90
2023-04-01T16:54:55.809Z,2.50
2023-04-01T17:00:18.738Z,2.60
2023-04-01T17:05:39.764Z,2.72
2023-04-01T17:10:57.154Z,2.40
2023-04-01T17:16:20.392Z,2.60
2023-04-01T17:21:43.904Z,2.60
2023-04-01T17:26:55.504Z,5.00
2023-04-01T17:32:13.826Z,2.80
2023-04-01T17:37:42.808Z,2.90
2023-04-01T17:42:56.600Z,2.40
2023-04-01T17:48:17.961Z,2.58
2023-04-01T17:53:32.589Z,2.50
2023-04-01T17:58:48.660Z,2.40
2023-04-01T18:04:28.331Z,2.20
2023-04-01T18:09:42.560Z,2.60
2023-04-01T18:15:15.070Z,2.45
2023-04-01T18:20:46.439Z,2.60
2023-04-01T18:25:55.442Z,2.45
2023-04-01T18:31:09.416Z,2.55
2023-04-01T18:36:25.948Z,2.33
2023-04-01T18:41:38.205Z,2.45
2023-04-01T18:46:53.337Z,2.50
2023-04-01T18:52:07.929Z,2.42
2023-04-01T18:57:17.366Z,2.22
2023-04-01T19:02:33.562Z,2.47
2023-04-01T19:07:51.624Z,2.00
2023-04-01T19:13:20.188Z,2.23
2023-04-01T19:18:51.328Z,2.20
2023-04-01T19:24:26.663Z,1.85
2023-04-01T19:29:56.991Z,2.03
2023-04-01T19:35:17.539Z,2.63
2023-04-01T19:40:40.791Z,2.57
2023-04-01T19:45:51.914Z,3.00
2023-04-01T19:51:01.964Z,3.35
2023-04-01T19:56:20.423Z,3.47
2023-04-01T20:01:44.261Z,3.92
2023-04-01T20:06:59.646Z,3.70
2023-04-01T20:12:16.064Z,3.63
2023-04-01T20:17:27.729Z,4.15
2023-04-01T20:23:01.026Z,3.77
2023-04-01T20:28:20.136Z,3.30
2023-04-01T20:33:50.196Z,3.88
2023-04-01T20:39:14.776Z,3.63
2023-04-01T20:44:31.209Z,3.50
2023-04-01T20:49:45.674Z,3.35
2023-04-01T20:55:12.044Z,2.73
2023-04-01T21:00:35.431Z,1.90
2023-04-01T21:06:03.816Z,2.00
2023-04-01T21:11:17.687Z,1.85
2023-04-01T21:16:44.333Z,2.00
2023-04-01T21:22:22.402Z,1.63
2023-04-01T21:27:42.622Z,2.20
2023-04-01T21:33:08.568Z,2.03
2023-04-01T21:38:31.022Z,1.77
2023-04-01T21:44:04.950Z,1.30
2023-04-01T21:49:28.762Z,1.50
2023-04-01T21:55:03.624Z,1.50
2023-04-01T22:00:17.901Z,1.20
2023-04-01T22:05:32.842Z,1.50
2023-04-01T22:10:45.300Z,1.63
2023-04-01T22:16:06.741Z,1.73
2023-04-01T22:21:22.524Z,2.03
2023-04-01T22:26:35.767Z,2.73
2023-04-01T22:31:47.745Z,2.20
2023-04-01T22:37:04.586Z,2.42
2023-04-01T22:42:21.906Z,2.40
2023-04-01T22:47:35.141Z,2.50
2023-04-01T22:52:46.042Z,2.03
2023-04-01T22:57:56.238Z,2.30
2023-04-01T23:03:12.947Z,2.10
2023-04-01T23:08:53.551Z,2.33
2023-04-01T23:14:20.046Z,2.42
2023-04-01T23:19:30.815Z,2.03
2023-04-01T23:24:45.293Z,1.73
2023-04-01T23:29:50.779Z,2.25
2023-04-01T23:34:57.647Z,2.10
2023-04-01T23:40:07.013Z,2.00
2023-04-01T23:45:21.685Z,2.40
2023-04-01T23:50:30.901Z,2.10
2023-04-01T23:55:39.025Z,2.00
